Time;durP1;ratioP1;P1;durP2;ratioP2;P2;SDS_P1;SDS_P2;PMS_P1;PMS_P2;Temp;Humidity;BMP_temperature;BMP_pressure;BME280_temperature;BME280_humidity;BME280_pressure;Samples;Min_cycle;Max_cycle;Signal;HPM_P1;HPM_P2
2023/07/11 00:00:15;;;;;;;5.30;1.75;;;17.90;99.90;;;;;;5055477;28;20080;-74
2023/07/11 00:02:45;;;;;;;4.88;2.00;;;17.90;99.90;;;;;;5055237;28;20040;-74
2023/07/11 00:05:13;;;;;;;4.95;1.85;;;17.90;99.90;;;;;;5053672;28;20480;-74
2023/07/11 00:07:42;;;;;;;6.18;2.00;;;17.90;99.90;;;;;;5073053;28;20041;-74
2023/07/11 00:10:10;;;;;;;6.80;2.25;;;17.90;99.90;;;;;;5073594;28;20041;-74
2023/07/11 00:12:36;;;;;;;4.57;1.80;;;17.90;99.90;;;;;;5054449;28;20132;-74
2023/07/11 00:15:03;;;;;;;5.78;2.50;;;17.90;99.90;;;;;;5054886;28;20083;-74
2023/07/11 00:17:28;;;;;;;5.28;2.03;;;17.90;99.90;;;;;;5073416;28;20047;-74
2023/07/11 00:19:57;;;;;;;5.80;1.98;;;17.80;99.90;;;;;;5073647;28;20107;-74
2023/07/11 00:22:29;;;;;;;5.00;2.22;;;17.80;99.90;;;;;;5074902;28;20071;-75
2023/07/11 00:24:55;;;;;;;4.75;2.13;;;17.80;99.90;;;;;;5056160;28;20076;-74
2023/07/11 00:27:23;;;;;;;4.25;2.40;;;18.00;99.90;;;;;;5072644;28;20047;-74
2023/07/11 00:29:50;;;;;;;6.38;2.20;;;18.00;99.90;;;;;;5051082;28;20113;-74
2023/07/11 00:32:16;;;;;;;4.40;2.08;;;18.00;99.90;;;;;;5051626;28;20057;-74
2023/07/11 00:34:42;;;;;;;4.13;1.90;;;17.90;99.90;;;;;;5032097;28;20053;-74
2023/07/11 00:37:08;;;;;;;4.57;2.00;;;17.90;99.90;;;;;;5035542;28;20041;-74
2023/07/11 00:39:35;;;;;;;5.47;1.95;;;18.00;99.90;;;;;;5033574;28;20537;-74
2023/07/11 00:42:02;;;;;;;3.00;1.70;;;18.00;99.90;;;;;;5033394;28;20045;-75
2023/07/11 00:44:28;;;;;;;3.92;1.58;;;17.90;99.90;;;;;;5038226;28;20059;-74
2023/07/11 00:46:54;;;;;;;6.13;1.73;;;17.90;99.90;;;;;;5038411;28;20037;-75
2023/07/11 00:49:22;;;;;;;5.68;1.75;;;18.00;99.90;;;;;;5039245;28;20037;-74
2023/07/11 00:51:59;;;;;;;5.80;2.20;;;18.00;99.90;;;;;;5022227;28;20087;-74
2023/07/11 00:54:33;;;;;;;4.97;1.90;;;18.00;99.90;;;;;;5055496;28;20512;-75
2023/07/11 00:57:02;;;;;;;4.63;1.50;;;18.10;99.90;;;;;;5056035;28;20052;-74
2023/07/11 00:59:29;;;;;;;5.50;1.60;;;18.10;99.90;;;;;;5038470;28;20052;-74
2023/07/11 01:02:06;;;;;;;4.57;1.70;;;18.10;99.90;;;;;;5054933;28;20045;-75
2023/07/11 01:04:32;;;;;;;3.38;1.60;;;18.10;99.90;;;;;;5055271;28;20052;-75
2023/07/11 01:06:58;;;;;;;4.05;1.90;;;18.10;99.90;;;;;;5036960;28;20049;-75
2023/07/11 01:09:23;;;;;;;3.65;1.50;;;18.20;99.90;;;;;;5036184;28;20148;-75
2023/07/11 01:11:57;;;;;;;6.60;1.73;;;18.20;99.90;;;;;;5055440;28;20073;-75
2023/07/11 01:14:24;;;;;;;3.67;1.67;;;18.20;99.90;;;;;;5037155;28;20053;-74
2023/07/11 01:16:53;;;;;;;4.22;1.50;;;18.20;99.90;;;;;;5054368;28;20044;-74
2023/07/11 01:19:20;;;;;;;5.78;1.75;;;18.20;99.90;;;;;;5037741;28;20125;-74
2023/07/11 01:21:47;;;;;;;7.72;1.60;;;18.20;99.90;;;;;;5036726;28;20049;-75
2023/07/11 01:24:13;;;;;;;3.75;1.60;;;18.20;99.90;;;;;;5054728;28;20037;-75
2023/07/11 01:26:39;;;;;;;6.63;1.80;;;18.20;99.90;;;;;;5037075;28;20541;-75
2023/07/11 01:29:06;;;;;;;7.05;1.55;;;18.20;99.90;;;;;;5036543;28;20041;-74
2023/07/11 01:31:35;;;;;;;5.10;1.30;;;18.10;99.90;;;;;;5038337;28;20078;-74
2023/07/11 01:34:04;;;;;;;4.57;1.42;;;18.10;99.90;;;;;;5032553;28;20049;-75
2023/07/11 01:36:31;;;;;;;6.13;1.40;;;18.20;99.90;;;;;;5035703;28;20087;-74
2023/07/11 01:38:57;;;;;;;4.90;1.85;;;18.20;99.90;;;;;;5055287;28;20037;-74
2023/07/11 01:41:26;;;;;;;4.60;1.80;;;18.20;99.90;;;;;;5037073;28;20052;-74
2023/07/11 01:43:53;;;;;;;5.15;2.17;;;18.20;99.90;;;;;;5054468;28;20047;-74
2023/07/11 01:46:19;;;;;;;5.00;2.00;;;18.20;99.90;;;;;;5054451;28;20087;-74
2023/07/11 01:48:45;;;;;;;6.43;2.28;;;18.10;99.90;;;;;;5054157;28;20041;-74
2023/07/11 01:51:11;;;;;;;3.88;1.80;;;18.10;99.90;;;;;;5044475;28;20041;-74
2023/07/11 01:53:36;;;;;;;6.00;1.88;;;18.00;99.90;;;;;;5035945;28;20123;-74
2023/07/11 01:56:08;;;;;;;4.78;2.10;;;18.00;99.90;;;;;;5054284;28;20485;-74
2023/07/11 01:58:34;;;;;;;4.47;2.00;;;18.00;99.90;;;;;;5052977;28;20044;-74
2023/07/11 02:01:00;;;;;;;5.82;1.98;;;17.90;99.90;;;;;;5036018;28;20052;-74
2023/07/11 02:03:26;;;;;;;4.70;1.90;;;17.90;99.90;;;;;;5036036;28;20053;-74
2023/07/11 02:05:53;;;;;;;4.40;2.10;;;17.90;99.90;;;;;;5053359;28;20049;-74
2023/07/11 02:08:18;;;;;;;3.83;2.00;;;17.90;99.90;;;;;;5054492;28;20045;-74
2023/07/11 02:10:45;;;;;;;4.72;1.60;;;17.90;99.90;;;;;;5053945;28;20122;-75
2023/07/11 02:13:11;;;;;;;5.15;2.17;;;17.90;99.90;;;;;;5053277;28;20044;-74
2023/07/11 02:15:37;;;;;;;5.80;2.20;;;17.90;99.90;;;;;;5048940;28;20431;-74
2023/07/11 02:18:03;;;;;;;6.10;1.80;;;17.80;99.90;;;;;;5074233;28;20040;-74
2023/07/11 02:20:28;;;;;;;3.55;1.83;;;17.80;99.90;;;;;;5056071;28;20457;-74
2023/07/11 02:22:54;;;;;;;5.70;1.88;;;17.80;99.90;;;;;;5056668;28;20473;-74
2023/07/11 02:25:20;;;;;;;6.20;1.70;;;17.90;99.90;;;;;;5073827;28;20045;-74
2023/07/11 02:27:51;;;;;;;5.18;1.90;;;17.90;99.90;;;;;;5066913;28;20112;-74
2023/07/11 02:30:17;;;;;;;5.22;1.60;;;17.90;99.90;;;;;;5045629;28;20045;-74
2023/07/11 02:32:43;;;;;;;3.83;1.42;;;17.90;99.90;;;;;;5057679;28;20110;-74
2023/07/11 02:35:14;;;;;;;2.40;1.20;;;17.80;99.90;;;;;;5071878;28;20044;-74
2023/07/11 02:37:39;;;;;;;4.70;1.58;;;17.90;99.90;;;;;;5093753;28;20048;-75
2023/07/11 02:40:06;;;;;;;5.38;1.77;;;17.80;99.90;;;;;;5060767;28;20039;-74
2023/07/11 02:42:32;;;;;;;4.25;1.40;;;17.80;99.90;;;;;;5073474;28;20083;-74
2023/07/11 02:44:57;;;;;;;3.63;1.45;;;17.80;99.90;;;;;;5056853;28;20133;-74
2023/07/11 02:47:23;;;;;;;4.63;1.80;;;17.80;99.90;;;;;;5073027;28;20087;-74
2023/07/11 02:49:49;;;;;;;6.40;1.98;;;17.80;99.90;;;;;;5074236;28;20449;-74
2023/07/11 02:52:14;;;;;;;5.18;1.83;;;17.80;99.90;;;;;;5055286;28;20043;-74
2023/07/11 02:54:40;;;;;;;4.18;1.60;;;17.70;99.90;;;;;;5072338;28;20043;-74
2023/07/11 02:57:08;;;;;;;4.57;2.10;;;17.70;99.90;;;;;;5055552;28;20048;-74
2023/07/11 02:59:33;;;;;;;4.60;1.70;;;17.70;99.90;;;;;;5073044;28;20036;-74
2023/07/11 03:01:59;;;;;;;4.45;1.88;;;17.70;99.90;;;;;;5072714;28;20446;-75
2023/07/11 03:04:29;;;;;;;6.07;2.22;;;17.70;99.90;;;;;;5074458;28;20472;-74
2023/07/11 03:06:58;;;;;;;9.35;2.05;;;17.70;99.90;;;;;;5073422;28;20070;-74
2023/07/11 03:09:27;;;;;;;6.22;1.70;;;17.70;99.90;;;;;;5072747;28;20102;-74
2023/07/11 03:11:53;;;;;;;3.72;1.55;;;17.70;99.90;;;;;;5055278;28;20053;-74
2023/07/11 03:14:19;;;;;;;4.78;1.50;;;17.70;99.90;;;;;;5054354;28;20055;-74
2023/07/11 03:16:52;;;;;;;4.25;1.55;;;17.70;99.90;;;;;;5054713;28;20040;-75
2023/07/11 03:19:21;;;;;;;2.70;1.30;;;17.70;99.90;;;;;;5054786;28;20467;-74
2023/07/11 03:21:48;;;;;;;4.03;1.58;;;17.70;99.90;;;;;;5053560;28;20076;-74
2023/07/11 03:24:15;;;;;;;3.55;1.55;;;17.70;99.90;;;;;;5054008;28;20503;-74
2023/07/11 03:26:41;;;;;;;6.32;1.83;;;17.70;99.90;;;;;;5072290;28;20084;-75
2023/07/11 03:29:07;;;;;;;4.35;1.65;;;17.70;99.90;;;;;;5053550;28;20075;-75
2023/07/11 03:31:36;;;;;;;4.13;1.50;;;17.70;99.90;;;;;;5072310;28;20571;-75
2023/07/11 03:34:01;;;;;;;4.75;1.65;;;17.70;99.90;;;;;;5071650;28;20479;-75
2023/07/11 03:36:27;;;;;;;5.50;1.88;;;17.80;99.90;;;;;;5053533;28;20124;-75
2023/07/11 03:38:53;;;;;;;5.55;1.83;;;17.70;99.90;;;;;;5054864;28;20044;-75
2023/07/11 03:41:18;;;;;;;3.88;1.80;;;17.80;99.90;;;;;;5072594;28;20051;-75
2023/07/11 03:43:44;;;;;;;7.57;1.80;;;17.80;99.90;;;;;;5071395;28;20041;-73
2023/07/11 03:46:10;;;;;;;4.35;1.90;;;17.70;99.90;;;;;;5053986;28;20455;-74
2023/07/11 03:48:36;;;;;;;7.32;2.65;;;17.80;99.90;;;;;;5054317;28;20040;-74
2023/07/11 03:51:01;;;;;;;6.55;1.92;;;18.00;99.90;;;;;;5070634;28;20500;-74
2023/07/11 03:53:27;;;;;;;5.28;2.03;;;17.90;99.90;;;;;;5072653;28;20377;-75
2023/07/11 03:55:53;;;;;;;3.90;2.00;;;17.80;99.90;;;;;;5044369;28;20076;-74
2023/07/11 03:58:18;;;;;;;5.32;2.38;;;17.80;99.90;;;;;;5039978;28;20587;-75
2023/07/11 04:00:46;;;;;;;4.65;2.30;;;17.90;99.90;;;;;;5052493;28;20047;-75
2023/07/11 04:03:12;;;;;;;6.35;2.35;;;17.90;99.90;;;;;;5072438;28;20087;-75
2023/07/11 04:05:41;;;;;;;5.43;2.90;;;17.90;99.90;;;;;;5052432;28;20079;-75
2023/07/11 04:08:08;;;;;;;6.28;2.80;;;17.90;99.90;;;;;;5072805;28;20081;-75
2023/07/11 04:10:38;;;;;;;5.65;2.72;;;17.90;99.90;;;;;;5071009;28;20044;-75
2023/07/11 04:13:04;;;;;;;6.72;2.80;;;17.90;99.90;;;;;;5054185;28;20052;-74
2023/07/11 04:15:30;;;;;;;5.32;2.85;;;17.90;99.90;;;;;;5055743;28;20037;-75
2023/07/11 04:17:55;;;;;;;6.65;2.67;;;17.90;99.90;;;;;;5055755;28;20354;-75
2023/07/11 04:20:21;;;;;;;5.45;2.90;;;17.80;99.90;;;;;;5076166;28;20040;-76
2023/07/11 04:22:46;;;;;;;5.03;2.83;;;17.80;99.90;;;;;;5076200;28;20524;-76
2023/07/11 04:25:15;;;;;;;7.18;3.22;;;17.80;99.90;;;;;;5074772;28;20402;-76
2023/07/11 04:27:40;;;;;;;6.15;3.25;;;17.70;99.90;;;;;;5057411;28;20090;-75
2023/07/11 04:30:07;;;;;;;7.00;3.05;;;17.70;99.90;;;;;;5058231;28;20049;-75
2023/07/11 04:32:33;;;;;;;6.80;3.22;;;17.70;99.90;;;;;;5053539;28;20445;-75
2023/07/11 04:35:00;;;;;;;5.90;3.40;;;17.60;99.90;;;;;;5055740;28;20044;-75
2023/07/11 04:37:29;;;;;;;9.98;3.67;;;17.70;99.90;;;;;;5055871;28;20048;-75
2023/07/11 04:39:54;;;;;;;7.82;3.63;;;17.60;99.90;;;;;;5037383;28;20056;-75
2023/07/11 04:42:20;;;;;;;6.80;3.28;;;17.70;99.90;;;;;;5056334;28;20131;-75
2023/07/11 04:44:46;;;;;;;8.40;3.85;;;17.70;99.90;;;;;;5055323;28;20052;-75
2023/07/11 04:47:14;;;;;;;7.00;3.60;;;17.70;99.90;;;;;;5055656;28;20041;-76
2023/07/11 04:49:40;;;;;;;8.20;3.78;;;17.70;99.90;;;;;;5057131;28;20105;-75
2023/07/11 04:52:06;;;;;;;8.65;4.30;;;17.70;99.90;;;;;;5057175;28;20498;-75
2023/07/11 04:54:32;;;;;;;8.18;4.22;;;17.70;99.90;;;;;;5074923;28;20047;-75
2023/07/11 04:57:03;;;;;;;7.45;4.35;;;17.80;99.90;;;;;;5075160;28;20123;-72
2023/07/11 04:59:28;;;;;;;8.18;4.70;;;17.80;99.90;;;;;;5035346;28;20049;-75
2023/07/11 05:01:54;;;;;;;8.27;4.20;;;17.90;99.90;;;;;;5054864;28;20572;-76
2023/07/11 05:04:19;;;;;;;7.47;4.40;;;18.00;99.90;;;;;;5055755;28;20045;-79
2023/07/11 05:06:47;;;;;;;8.25;4.05;;;18.00;99.90;;;;;;5054759;28;20041;-75
2023/07/11 05:09:15;;;;;;;9.45;4.93;;;18.10;99.90;;;;;;5036403;28;20493;-74
2023/07/11 05:11:40;;;;;;;6.47;4.50;;;18.10;99.90;;;;;;5055292;28;20037;-76
2023/07/11 05:14:06;;;;;;;10.52;4.47;;;18.10;99.90;;;;;;5055791;28;20045;-75
2023/07/11 05:16:34;;;;;;;8.57;4.10;;;18.20;99.90;;;;;;5054534;28;20048;-75
2023/07/11 05:19:00;;;;;;;9.15;4.70;;;18.30;99.90;;;;;;5037198;28;20037;-76
2023/07/11 05:21:27;;;;;;;9.40;5.20;;;18.30;99.90;;;;;;5037615;28;20045;-75
2023/07/11 05:23:55;;;;;;;8.85;4.30;;;18.30;99.90;;;;;;5036655;28;20398;-74
2023/07/11 05:26:21;;;;;;;8.32;4.25;;;18.40;99.90;;;;;;5045652;28;20036;-75
2023/07/11 05:28:47;;;;;;;8.30;4.40;;;18.40;99.90;;;;;;5034991;28;20063;-72
2023/07/11 05:31:13;;;;;;;8.30;4.60;;;18.50;99.90;;;;;;5039916;28;20041;-75
2023/07/11 05:33:39;;;;;;;9.43;4.88;;;18.50;99.90;;;;;;5054301;28;20052;-73
2023/07/11 05:36:23;;;;;;;10.13;4.63;;;18.50;99.90;;;;;;5053387;28;20066;-72
2023/07/11 05:38:49;;;;;;;10.75;5.13;;;18.60;99.90;;;;;;5036143;28;20489;-71
2023/07/11 05:41:15;;;;;;;7.90;4.70;;;18.70;99.90;;;;;;5047717;28;20033;-73
2023/07/11 05:43:41;;;;;;;10.52;5.80;;;18.70;99.90;;;;;;5031687;28;20081;-71
2023/07/11 05:46:07;;;;;;;9.45;4.80;;;18.70;99.90;;;;;;5030875;28;20045;-72
2023/07/11 05:48:33;;;;;;;10.80;5.45;;;18.80;99.90;;;;;;5044666;28;20041;-72
2023/07/11 05:51:04;;;;;;;12.18;5.13;;;18.90;99.90;;;;;;5054671;28;20110;-74
2023/07/11 05:53:30;;;;;;;11.10;4.80;;;19.00;99.90;;;;;;5035105;28;20045;-73
2023/07/11 05:55:57;;;;;;;9.93;5.45;;;19.10;99.90;;;;;;5035701;28;20067;-71
2023/07/11 05:58:24;;;;;;;10.95;5.75;;;19.10;99.90;;;;;;5044927;28;20052;-71
2023/07/11 06:00:54;;;;;;;9.63;5.28;;;19.20;99.90;;;;;;5034904;28;20045;-71
2023/07/11 06:03:22;;;;;;;10.52;5.10;;;19.30;99.90;;;;;;5034113;28;20183;-71
2023/07/11 06:05:48;;;;;;;8.65;4.78;;;19.30;99.90;;;;;;5033036;28;20060;-71
2023/07/11 06:08:14;;;;;;;7.95;4.60;;;19.40;99.90;;;;;;5032959;28;20037;-71
2023/07/11 06:10:40;;;;;;;7.35;5.10;;;19.60;99.90;;;;;;5050634;28;20120;-71
2023/07/11 06:13:06;;;;;;;6.75;4.53;;;19.70;99.90;;;;;;5033243;28;20140;-72
2023/07/11 06:15:33;;;;;;;10.55;5.55;;;19.80;99.90;;;;;;5034687;28;20536;-72
2023/07/11 06:17:59;;;;;;;9.52;5.60;;;19.80;99.90;;;;;;5034162;28;20131;-71
2023/07/11 06:20:24;;;;;;;9.50;5.25;;;19.90;99.90;;;;;;5034434;28;20071;-72
2023/07/11 06:22:50;;;;;;;9.27;5.25;;;20.10;99.90;;;;;;5035370;28;20041;-73
2023/07/11 06:25:22;;;;;;;9.98;5.28;;;20.20;99.90;;;;;;5036212;28;20041;-74
2023/07/11 06:27:48;;;;;;;9.88;4.85;;;20.20;99.90;;;;;;5034982;28;20045;-76
2023/07/11 06:30:14;;;;;;;9.85;5.05;;;20.20;99.90;;;;;;5035241;28;20087;-73
2023/07/11 06:32:40;;;;;;;8.25;5.45;;;20.30;99.90;;;;;;5037208;28;20049;-74
2023/07/11 06:35:07;;;;;;;8.43;5.55;;;20.40;99.90;;;;;;5070016;28;20044;-75
2023/07/11 06:37:33;;;;;;;11.20;5.28;;;20.50;99.90;;;;;;5061457;28;20063;-74
2023/07/11 06:39:58;;;;;;;9.07;6.13;;;20.70;99.90;;;;;;5053350;28;20490;-71
2023/07/11 06:42:24;;;;;;;10.82;4.93;;;21.00;99.90;;;;;;5064449;28;20036;-73
2023/07/11 06:44:50;;;;;;;11.18;6.10;;;21.10;99.90;;;;;;5057029;28;20113;-75
2023/07/11 06:47:18;;;;;;;9.60;5.95;;;21.20;99.90;;;;;;5056305;28;20485;-74
2023/07/11 06:49:47;;;;;;;12.15;5.95;;;21.30;99.90;;;;;;5044144;28;20128;-75
2023/07/11 06:52:12;;;;;;;11.07;7.00;;;21.30;99.90;;;;;;5059465;28;20369;-75
2023/07/11 06:54:38;;;;;;;14.38;7.45;;;21.40;99.90;;;;;;5093904;28;20051;-75
2023/07/11 06:57:04;;;;;;;11.68;8.07;;;21.50;99.90;;;;;;5074394;28;20052;-76
2023/07/11 06:59:30;;;;;;;12.30;7.82;;;21.60;99.90;;;;;;5073974;28;20036;-74
2023/07/11 07:01:56;;;;;;;12.15;8.18;;;21.70;99.90;;;;;;5072389;28;20072;-75
2023/07/11 07:04:21;;;;;;;13.55;8.35;;;21.80;99.90;;;;;;5053487;28;20055;-74
2023/07/11 07:06:47;;;;;;;11.30;7.68;;;22.00;99.90;;;;;;5053178;28;20101;-73
2023/07/11 07:09:13;;;;;;;11.20;6.95;;;22.10;99.90;;;;;;5071556;28;20040;-75
2023/07/11 07:11:40;;;;;;;14.18;8.32;;;22.20;99.90;;;;;;5073127;28;20047;-73
2023/07/11 07:14:10;;;;;;;12.80;7.85;;;22.20;99.90;;;;;;5056139;28;20428;-72
2023/07/11 07:16:38;;;;;;;10.80;7.03;;;22.20;99.90;;;;;;5055486;28;20051;-72
2023/07/11 07:19:06;;;;;;;14.38;6.88;;;22.20;99.90;;;;;;5074247;28;20044;-74
2023/07/11 07:21:34;;;;;;;10.98;6.57;;;22.30;99.90;;;;;;5052672;28;20045;-74
2023/07/11 07:24:01;;;;;;;10.68;6.50;;;22.20;99.90;;;;;;5056999;28;20048;-74
2023/07/11 07:26:28;;;;;;;10.30;6.15;;;22.10;99.90;;;;;;5056762;28;20044;-74
2023/07/11 07:28:53;;;;;;;10.52;7.30;;;22.30;99.90;;;;;;5055618;28;20079;-74
2023/07/11 07:31:19;;;;;;;11.00;7.00;;;22.50;99.90;;;;;;5073625;28;20072;-75
2023/07/11 07:33:45;;;;;;;11.68;6.90;;;22.90;99.90;;;;;;5055526;28;20572;-74
2023/07/11 07:36:12;;;;;;;11.35;6.22;;;23.60;99.90;;;;;;5056089;28;20400;-74
2023/07/11 07:38:39;;;;;;;10.75;6.82;;;24.30;99.90;;;;;;5054639;28;20183;-75
2023/07/11 07:41:11;;;;;;;10.38;6.38;;;24.80;99.90;;;;;;5055762;28;20089;-75
2023/07/11 07:43:39;;;;;;;8.30;5.90;;;25.00;99.90;;;;;;5034965;28;20060;-75
2023/07/11 07:46:06;;;;;;;11.70;6.47;;;25.30;99.90;;;;;;5054615;28;20059;-75
2023/07/11 07:48:32;;;;;;;9.20;5.78;;;25.60;99.90;;;;;;5055319;28;20060;-75
2023/07/11 07:51:08;;;;;;;8.18;5.50;;;25.70;99.90;;;;;;5052444;28;20036;-75
2023/07/11 07:53:34;;;;;;;9.13;5.80;;;25.80;99.90;;;;;;5058506;28;20047;-75
2023/07/11 07:56:24;;;;;;;9.48;5.63;;;25.70;99.90;;;;;;5077938;28;20041;-75
2023/07/11 07:58:50;;;;;;;12.70;5.22;;;25.30;99.90;;;;;;5059802;28;20052;-75
2023/07/11 08:01:18;;;;;;;9.23;5.40;;;25.00;99.90;;;;;;5060922;28;20040;-74
2023/07/11 08:03:44;;;;;;;9.30;5.18;;;24.70;99.90;;;;;;5077398;28;20040;-75
2023/07/11 08:06:12;;;;;;;9.85;5.40;;;24.50;99.90;;;;;;5078608;28;20040;-75
2023/07/11 08:08:37;;;;;;;8.05;5.05;;;24.50;99.90;;;;;;5060180;28;20055;-75
2023/07/11 08:11:06;;;;;;;7.88;4.97;;;24.30;99.90;;;;;;5077627;28;20041;-75
2023/07/11 08:13:32;;;;;;;8.07;5.10;;;24.40;99.90;;;;;;5078141;28;20040;-75
2023/07/11 08:15:58;;;;;;;8.55;4.50;;;24.40;99.90;;;;;;5076613;28;20049;-75
2023/07/11 08:18:24;;;;;;;8.93;4.90;;;24.60;99.90;;;;;;5059637;28;20048;-75
2023/07/11 08:20:50;;;;;;;8.02;5.05;;;24.90;99.90;;;;;;5060465;28;20132;-75
2023/07/11 08:23:16;;;;;;;7.90;5.18;;;25.10;99.90;;;;;;5077792;28;20183;-75
2023/07/11 08:25:41;;;;;;;10.43;5.18;;;25.30;99.90;;;;;;5077297;28;20048;-75
2023/07/11 08:28:07;;;;;;;8.98;4.82;;;25.40;99.90;;;;;;5059628;28;20036;-75
2023/07/11 08:30:39;;;;;;;8.23;4.90;;;25.30;99.50;;;;;;5077953;28;20068;-75
2023/07/11 08:33:06;;;;;;;10.13;4.40;;;25.30;99.90;;;;;;5059680;28;20063;-75
2023/07/11 08:35:31;;;;;;;8.63;3.85;;;25.50;99.60;;;;;;5060334;28;20056;-74
2023/07/11 08:37:57;;;;;;;6.90;4.10;;;25.90;98.20;;;;;;5077654;28;20048;-75
2023/07/11 08:40:28;;;;;;;6.20;4.00;;;26.20;98.20;;;;;;5077535;28;20633;-75
2023/07/11 08:42:54;;;;;;;6.30;3.42;;;26.50;97.70;;;;;;5060351;28;20186;-75
2023/07/11 08:45:24;;;;;;;8.02;4.03;;;26.80;97.00;;;;;;5059095;28;20131;-75
2023/07/11 08:48:41;;;;;;;9.43;3.80;;;27.00;97.00;;;;;;5059946;28;20066;-75
2023/07/11 08:51:50;;;;;;;4.70;2.90;;;26.70;96.50;;;;;;4980365;28;20052;-75
2023/07/11 08:54:33;;;;;;;8.50;2.60;;;26.60;96.60;;;;;;4977593;28;20054;-75
2023/07/11 08:56:59;;;;;;;7.10;2.50;;;27.10;96.20;;;;;;5070434;28;20048;-75
2023/07/11 08:59:43;;;;;;;6.82;2.88;;;27.50;94.40;;;;;;5078429;28;20044;-75
2023/07/11 09:02:09;;;;;;;5.93;2.95;;;27.60;94.20;;;;;;5078615;28;20047;-75
2023/07/11 09:04:41;;;;;;;4.60;2.90;;;27.70;94.40;;;;;;5075769;28;20044;-75
2023/07/11 09:07:21;;;;;;;9.07;3.42;;;27.70;93.90;;;;;;5056802;28;20044;-75
2023/07/11 09:09:47;;;;;;;6.50;2.50;;;28.10;94.80;;;;;;5056766;28;20047;-75
2023/07/11 09:12:38;;;;;;;5.85;2.72;;;28.60;93.70;;;;;;5056511;28;20484;-75
2023/07/11 09:15:28;;;;;;;9.30;2.70;;;28.90;93.50;;;;;;5055940;28;20098;-75
2023/07/11 09:18:15;;;;;;;7.30;2.67;;;29.10;92.30;;;;;;5056418;28;20080;-75
2023/07/11 09:20:49;;;;;;;8.73;2.88;;;29.10;92.30;;;;;;5055466;28;20099;-75
2023/07/11 09:23:52;;;;;;;8.20;3.05;;;29.20;93.40;;;;;;5074777;28;20041;-75
2023/07/11 09:26:29;;;;;;;7.72;3.25;;;29.60;93.80;;;;;;5074187;28;20438;-75
2023/07/11 09:29:22;;;;;;;8.57;3.28;;;29.80;92.60;;;;;;5055351;28;20051;-75
2023/07/11 09:31:55;;;;;;;8.57;2.80;;;29.70;92.00;;;;;;5033019;28;20060;-75
2023/07/11 09:34:36;;;;;;;9.23;3.20;;;29.70;93.00;;;;;;5052878;28;20060;-75
2023/07/11 09:37:32;;;;;;;8.88;3.55;;;29.90;92.50;;;;;;5055535;28;20037;-74
2023/07/11 09:40:43;;;;;;;6.90;3.13;;;30.00;91.40;;;;;;5045422;28;20052;-75
2023/07/11 09:43:12;;;;;;;6.18;3.10;;;29.90;91.80;;;;;;4991481;28;20549;-75
2023/07/11 09:45:47;;;;;;;7.43;3.17;;;29.70;91.50;;;;;;4975027;28;20109;-75
2023/07/11 09:48:24;;;;;;;6.93;3.13;;;29.80;92.00;;;;;;5036849;28;20129;-75
2023/07/11 09:50:58;;;;;;;8.82;3.33;;;29.70;92.10;;;;;;5072998;28;20547;-75
2023/07/11 09:53:26;;;;;;;6.82;2.92;;;30.00;90.90;;;;;;5056001;28;20160;-75
2023/07/11 09:56:01;;;;;;;6.00;2.53;;;30.20;91.30;;;;;;5054749;28;20401;-75
2023/07/11 09:58:29;;;;;;;7.70;2.90;;;30.30;90.80;;;;;;5055958;28;20059;-75
2023/07/11 10:01:03;;;;;;;6.03;3.15;;;30.40;90.30;;;;;;5055791;28;20119;-75
2023/07/11 10:03:34;;;;;;;9.50;3.10;;;30.30;90.50;;;;;;5054902;28;20056;-75
2023/07/11 10:06:01;;;;;;;4.75;2.88;;;30.50;90.70;;;;;;5056107;28;20045;-74
2023/07/11 10:08:43;;;;;;;6.10;3.35;;;30.30;90.60;;;;;;5074924;28;20123;-75
2023/07/11 10:11:13;;;;;;;7.50;2.90;;;30.40;90.50;;;;;;5055871;28;20044;-74
2023/07/11 10:13:41;;;;;;;9.88;3.10;;;30.60;90.70;;;;;;5074155;28;20069;-74
2023/07/11 10:16:07;;;;;;;6.95;2.40;;;30.70;90.60;;;;;;5055390;28;20551;-74
2023/07/11 10:18:35;;;;;;;8.82;2.92;;;30.90;90.00;;;;;;5073568;28;20119;-75
2023/07/11 10:21:25;;;;;;;5.40;2.40;;;30.90;90.80;;;;;;5054611;28;20028;-73
2023/07/11 10:23:53;;;;;;;6.40;2.05;;;30.70;89.80;;;;;;5050448;28;20051;-74
2023/07/11 10:26:24;;;;;;;5.60;2.38;;;30.40;90.00;;;;;;5060017;28;20515;-77
2023/07/11 10:29:07;;;;;;;7.40;2.30;;;30.30;90.20;;;;;;5070815;28;20443;-77
2023/07/11 10:31:54;;;;;;;7.47;2.20;;;29.80;90.60;;;;;;5035478;28;20081;-78
2023/07/11 10:34:42;;;;;;;5.70;2.25;;;29.60;90.60;;;;;;5051529;28;20048;-77
2023/07/11 10:37:28;;;;;;;7.00;2.28;;;29.60;90.90;;;;;;5054738;28;20089;-76
2023/07/11 10:40:09;;;;;;;;;;;29.50;90.20;;;;;;5059327;28;20047;-76
2023/07/11 10:42:55;;;;;;;4.57;2.20;;;29.10;90.80;;;;;;5050300;28;19924;-77
2023/07/11 10:45:26;;;;;;;7.38;2.15;;;29.20;90.80;;;;;;5034648;28;20116;-74
2023/07/11 10:48:04;;;;;;;4.80;2.22;;;29.20;90.80;;;;;;5034990;28;20041;-78
2023/07/11 10:50:48;;;;;;;3.75;2.00;;;28.90;91.10;;;;;;5035373;28;20045;-77
2023/07/11 10:53:29;;;;;;;6.50;1.85;;;29.10;90.90;;;;;;5052824;28;20036;-77
2023/07/11 10:56:10;;;;;;;8.45;2.50;;;29.00;91.40;;;;;;5053585;28;20048;-77
2023/07/11 10:58:36;;;;;;;5.32;2.20;;;29.00;91.60;;;;;;5053887;28;20040;-76
2023/07/11 11:01:23;;;;;;;9.75;2.42;;;28.80;91.10;;;;;;5071366;28;20044;-77
2023/07/11 11:03:52;;;;;;;7.05;1.95;;;28.90;91.30;;;;;;5071991;28;20049;-79
2023/07/11 11:06:43;;;;;;;7.28;2.13;;;29.10;91.40;;;;;;5054218;28;20101;-81
2023/07/11 11:09:19;;;;;;;6.68;2.00;;;28.90;90.90;;;;;;5055502;28;20044;-79
2023/07/11 11:12:07;;;;;;;5.90;2.20;;;28.90;91.50;;;;;;5072150;28;20052;-79
2023/07/11 11:14:52;;;;;;;6.30;1.95;;;29.10;91.50;;;;;;5071676;28;20048;-79
2023/07/11 11:17:30;;;;;;;4.78;2.10;;;28.80;91.70;;;;;;5054909;28;20044;-80
2023/07/11 11:20:20;;;;;;;10.82;2.80;;;28.90;91.70;;;;;;5053326;28;20131;-80
2023/07/11 11:22:48;;;;;;;4.78;1.92;;;29.30;91.30;;;;;;5072377;28;20208;-79
2023/07/11 11:25:29;;;;;;;4.35;1.90;;;29.30;91.00;;;;;;5071849;28;20072;-77
2023/07/11 11:28:07;;;;;;;5.85;1.90;;;29.40;90.80;;;;;;5047523;28;20113;-80
2023/07/11 11:30:57;;;;;;;7.38;2.20;;;29.50;91.50;;;;;;5050108;28;20051;-79
2023/07/11 11:33:39;;;;;;;6.78;2.38;;;29.40;90.70;;;;;;5037054;28;20041;-79
2023/07/11 11:36:31;;;;;;;6.18;2.30;;;29.20;91.20;;;;;;5050497;28;20594;-77
2023/07/11 11:39:25;;;;;;;6.25;1.92;;;29.10;91.50;;;;;;5053304;28;20625;-81
2023/07/11 11:41:56;;;;;;;4.90;2.13;;;29.10;91.90;;;;;;5070234;28;20055;-79
2023/07/11 11:44:46;;;;;;;6.70;2.13;;;29.30;91.80;;;;;;5066252;28;20087;-80
2023/07/11 11:47:13;;;;;;;8.13;2.00;;;29.20;91.40;;;;;;5050817;28;20093;-80
2023/07/11 11:49:40;;;;;;;5.43;1.40;;;29.20;91.10;;;;;;5070066;28;20083;-80
2023/07/11 11:52:07;;;;;;;5.13;1.50;;;29.40;90.20;;;;;;5052821;28;20055;-80
2023/07/11 11:54:49;;;;;;;3.95;1.60;;;29.40;90.80;;;;;;5053726;28;20132;-80
2023/07/11 11:57:33;;;;;;;2.50;1.20;;;29.20;90.00;;;;;;5070412;28;20040;-78
2023/07/11 12:00:00;;;;;;;4.45;1.50;;;29.40;89.60;;;;;;5053315;28;20471;-77
2023/07/11 12:02:40;;;;;;;4.53;1.42;;;29.00;89.70;;;;;;5070608;28;20033;-80
2023/07/11 12:05:09;;;;;;;5.35;1.20;;;28.80;90.10;;;;;;5070861;28;20373;-80
2023/07/11 12:07:39;;;;;;;4.07;1.00;;;28.80;91.00;;;;;;5070803;28;20067;-80
2023/07/11 12:10:15;;;;;;;2.20;1.10;;;28.70;91.80;;;;;;5052643;28;20123;-80
2023/07/11 12:12:41;;;;;;;3.40;0.90;;;28.70;92.00;;;;;;5053451;28;20043;-79
2023/07/11 12:15:12;;;;;;;4.03;1.23;;;28.70;91.60;;;;;;5073502;28;20056;-79
2023/07/11 12:17:38;;;;;;;3.67;1.48;;;28.70;92.40;;;;;;5047267;28;20412;-78
2023/07/11 12:20:07;;;;;;;2.33;1.02;;;28.50;92.90;;;;;;5046293;28;20041;-81
2023/07/11 12:22:39;;;;;;;3.67;1.30;;;28.50;92.80;;;;;;5051603;28;20128;-76
2023/07/11 12:25:17;;;;;;;4.05;1.10;;;28.50;93.90;;;;;;5053332;28;20112;-79
2023/07/11 12:27:51;;;;;;;4.25;1.20;;;28.70;94.10;;;;;;5052427;28;20131;-80
2023/07/11 12:30:26;;;;;;;4.45;1.13;;;28.60;93.60;;;;;;5069023;28;20553;-75
2023/07/11 12:33:43;;;;;;;2.75;0.98;;;28.40;94.40;;;;;;5070884;28;20105;-74
2023/07/11 12:36:34;;;;;;;2.75;1.23;;;28.40;94.50;;;;;;5056992;28;20045;-74
2023/07/11 12:39:22;;;;;;;4.10;1.38;;;28.40;94.10;;;;;;5070640;28;20726;-75
2023/07/11 12:42:03;;;;;;;2.92;1.45;;;28.40;94.80;;;;;;5055456;28;20060;-75
2023/07/11 12:44:33;;;;;;;5.78;1.50;;;28.30;94.60;;;;;;5055228;28;20140;-75
2023/07/11 12:47:04;;;;;;;3.63;1.23;;;28.30;94.60;;;;;;5053674;28;20128;-74
2023/07/11 12:49:30;;;;;;;2.67;1.20;;;28.30;94.70;;;;;;5065748;28;20481;-75
2023/07/11 12:52:09;;;;;;;2.60;1.20;;;28.30;94.20;;;;;;5050644;28;20064;-74
2023/07/11 12:54:34;;;;;;;4.13;1.15;;;28.00;94.70;;;;;;5050164;28;20048;-75
2023/07/11 12:57:00;;;;;;;5.78;1.50;;;28.00;94.40;;;;;;5062884;28;20369;-74
2023/07/11 12:59:27;;;;;;;3.72;1.38;;;27.40;95.20;;;;;;5055525;28;20362;-75
2023/07/11 13:01:56;;;;;;;4.68;1.40;;;27.60;95.10;;;;;;5056465;28;20086;-74